Time;durP1;ratioP1;P1;durP2;ratioP2;P2;SDS_P1;SDS_P2;PMS_P1;PMS_P2;Temp;Humidity;BMP_temperature;BMP_pressure;BME280_temperature;BME280_humidity;BME280_pressure;Samples;Min_cycle;Max_cycle;Signal;HPM_P1;HPM_P2
2023/04/08 00:00:57;;;;;;;8.40;7.60;;;13.70;71.00;;;;;;6373270;22;20086;-82
2023/04/08 00:03:23;;;;;;;10.18;7.72;;;13.70;70.50;;;;;;6400014;22;20731;-82
2023/04/08 00:05:48;;;;;;;9.25;8.10;;;13.70;70.30;;;;;;6372942;22;20002;-83
2023/04/08 00:08:14;;;;;;;9.38;7.80;;;13.70;70.40;;;;;;6400375;22;20002;-83
2023/04/08 00:10:40;;;;;;;9.10;7.95;;;;;;;;;;6400770;22;20005;-84
2023/04/08 00:13:06;;;;;;;10.73;8.35;;;13.70;70.50;;;;;;6399985;22;20371;-83
2023/04/08 00:15:31;;;;;;;9.68;8.15;;;13.70;70.90;;;;;;6401130;22;20080;-84
2023/04/08 00:17:57;;;;;;;10.05;7.75;;;13.70;71.00;;;;;;6401128;22;20002;-84
2023/04/08 00:20:24;;;;;;;10.52;7.95;;;13.70;71.00;;;;;;6400614;22;20029;-84
2023/04/08 00:22:50;;;;;;;10.60;7.82;;;;;;;;;;6401146;22;20281;-84
2023/04/08 00:25:15;;;;;;;8.32;7.30;;;13.70;70.70;;;;;;6400515;22;20002;-84
2023/04/08 00:27:41;;;;;;;11.88;8.43;;;13.60;70.70;;;;;;6401095;22;20084;-83
2023/04/08 00:30:07;;;;;;;9.52;8.18;;;13.60;71.20;;;;;;6372471;22;20423;-84
2023/04/08 00:32:33;;;;;;;10.70;8.13;;;13.60;71.10;;;;;;6400706;22;20002;-84
2023/04/08 00:34:59;;;;;;;10.40;8.00;;;13.60;71.10;;;;;;6400672;22;20073;-84
2023/04/08 00:37:24;;;;;;;8.50;7.60;;;13.50;71.00;;;;;;6400440;22;20010;-84
2023/04/08 00:39:52;;;;;;;11.38;7.68;;;13.50;71.60;;;;;;6402066;22;20002;-84
2023/04/08 00:42:19;;;;;;;10.32;8.20;;;13.50;71.70;;;;;;6402222;22;20085;-84
2023/04/08 00:44:45;;;;;;;10.80;8.60;;;13.40;71.90;;;;;;6402936;22;20026;-84
2023/04/08 00:47:15;;;;;;;9.10;7.38;;;13.40;72.10;;;;;;6402057;22;19998;-84
2023/04/08 00:49:41;;;;;;;11.68;9.18;;;13.30;72.10;;;;;;6403082;22;19998;-82
2023/04/08 00:52:07;;;;;;;11.88;9.02;;;13.30;72.20;;;;;;6401940;22;20002;-82
2023/04/08 00:54:32;;;;;;;10.90;9.13;;;13.30;72.10;;;;;;6402710;22;20001;-82
2023/04/08 00:57:01;;;;;;;10.50;8.73;;;13.20;72.00;;;;;;6402156;22;20013;-83
2023/04/08 00:59:29;;;;;;;11.18;8.95;;;13.20;72.10;;;;;;6402328;22;20002;-82
2023/04/08 01:02:05;;;;;;;13.30;9.57;;;13.20;72.20;;;;;;6402807;22;20002;-82
2023/04/08 01:04:55;;;;;;;10.43;9.05;;;13.10;72.20;;;;;;6402502;22;19997;-82
2023/04/08 01:07:26;;;;;;;9.27;8.20;;;13.10;72.40;;;;;;6402356;22;20432;-82
2023/04/08 01:10:05;;;;;;;10.38;8.93;;;13.10;72.50;;;;;;6402879;22;19998;-82
2023/04/08 01:12:36;;;;;;;10.25;8.95;;;13.10;72.20;;;;;;6373373;22;20053;-82
2023/04/08 01:15:05;;;;;;;;;;;13.10;72.60;;;;;;6402589;22;20002;-82
2023/04/08 01:17:32;;;;;;;10.50;8.10;;;13.10;72.70;;;;;;6402300;22;19981;-82
2023/04/08 01:20:00;;;;;;;10.57;8.13;;;13.10;72.90;;;;;;6402775;22;20411;-83
2023/04/08 01:22:54;;;;;;;8.57;7.22;;;13.10;73.10;;;;;;6402085;22;20006;-83
2023/04/08 01:25:44;;;;;;;11.63;8.43;;;13.10;73.30;;;;;;6401679;22;20423;-83
2023/04/08 01:28:14;;;;;;;12.48;8.82;;;13.10;73.50;;;;;;6402064;22;20005;-83
2023/04/08 01:30:41;;;;;;;11.82;8.68;;;13.10;73.70;;;;;;6402505;22;19994;-83
2023/04/08 01:33:11;;;;;;;9.65;8.57;;;13.10;73.90;;;;;;6401777;22;20002;-83
2023/04/08 01:35:37;;;;;;;10.75;8.73;;;13.10;73.90;;;;;;6402526;22;20043;-83
2023/04/08 01:38:05;;;;;;;12.95;9.40;;;13.10;73.70;;;;;;6402427;22;20001;-83
2023/04/08 01:40:33;;;;;;;9.55;7.90;;;13.10;74.20;;;;;;6402587;22;19998;-83
2023/04/08 01:43:00;;;;;;;10.90;9.02;;;13.10;74.40;;;;;;6402304;22;19998;-83
2023/04/08 01:45:28;;;;;;;12.13;9.18;;;13.10;74.60;;;;;;6401706;22;20077;-83
2023/04/08 01:47:55;;;;;;;10.18;8.90;;;13.10;74.70;;;;;;6402274;22;19997;-84
2023/04/08 01:50:22;;;;;;;9.38;8.38;;;13.10;74.90;;;;;;6402175;22;19998;-84
2023/04/08 01:52:49;;;;;;;11.10;9.07;;;13.10;75.00;;;;;;6400913;22;20002;-83
2023/04/08 01:55:16;;;;;;;11.25;9.40;;;13.10;75.10;;;;;;6400687;22;20304;-84
2023/04/08 01:57:46;;;;;;;11.32;8.45;;;13.10;75.10;;;;;;6402741;22;20070;-82
2023/04/08 02:00:12;;;;;;;;;;;13.10;75.30;;;;;;6402556;22;20005;-82
2023/04/08 02:02:41;;;;;;;12.73;8.93;;;13.10;75.30;;;;;;6401436;22;19946;-82
2023/04/08 02:05:07;;;;;;;10.23;7.93;;;13.00;75.60;;;;;;6401474;22;20009;-82
2023/04/08 02:07:33;;;;;;;9.65;8.60;;;13.10;75.70;;;;;;6401989;22;20025;-81
2023/04/08 02:09:59;;;;;;;11.68;9.18;;;13.10;75.80;;;;;;6402064;22;20300;-82
2023/04/08 02:12:26;;;;;;;10.63;8.57;;;13.10;75.80;;;;;;6400434;22;20014;-82
2023/04/08 02:14:52;;;;;;;9.90;8.40;;;13.10;75.90;;;;;;6402315;22;20020;-82
2023/04/08 02:17:51;;;;;;;11.88;9.57;;;13.10;75.80;;;;;;6401796;22;20002;-82
2023/04/08 02:20:26;;;;;;;9.75;7.90;;;13.00;75.80;;;;;;6401367;22;20399;-82
2023/04/08 02:22:55;;;;;;;10.75;7.88;;;13.00;75.80;;;;;;6401630;22;20321;-82
2023/04/08 02:25:23;;;;;;;8.98;8.05;;;13.10;75.80;;;;;;6401673;22;20009;-82
2023/04/08 02:27:50;;;;;;;12.63;8.60;;;13.10;75.50;;;;;;6401453;22;20006;-82
2023/04/08 02:30:17;;;;;;;10.50;8.55;;;13.00;75.80;;;;;;6401226;22;20287;-82
2023/04/08 02:32:46;;;;;;;11.88;8.32;;;13.00;75.80;;;;;;6401570;22;20596;-82
2023/04/08 02:35:13;;;;;;;11.43;8.77;;;13.10;75.90;;;;;;6372452;22;19998;-83
2023/04/08 02:37:39;;;;;;;9.95;7.88;;;13.10;75.90;;;;;;6401287;22;20378;-83
2023/04/08 02:40:25;;;;;;;13.38;8.05;;;13.10;75.80;;;;;;6401484;22;20021;-82
2023/04/08 02:42:50;;;;;;;9.32;8.05;;;13.10;75.60;;;;;;6401373;22;20420;-83
2023/04/08 02:45:16;;;;;;;12.27;8.32;;;13.20;75.50;;;;;;6400571;22;20009;-83
2023/04/08 02:47:42;;;;;;;10.90;8.20;;;13.20;75.50;;;;;;6400725;22;20006;-83
2023/04/08 02:50:09;;;;;;;8.65;7.75;;;13.10;75.40;;;;;;6400547;22;19998;-83
2023/04/08 02:52:34;;;;;;;10.82;8.05;;;13.20;75.40;;;;;;6401281;22;20327;-83
2023/04/08 02:55:00;;;;;;;10.30;8.13;;;13.20;75.30;;;;;;6401670;22;20004;-83
2023/04/08 02:57:26;;;;;;;11.18;8.63;;;13.10;75.30;;;;;;6400788;22;20105;-83
2023/04/08 02:59:51;;;;;;;10.00;8.13;;;13.20;75.30;;;;;;6401469;22;20033;-84
2023/04/08 03:02:17;;;;;;;10.98;8.52;;;13.20;75.30;;;;;;6399918;22;20005;-84
2023/04/08 03:04:42;;;;;;;10.45;9.05;;;13.10;75.30;;;;;;6400713;22;20005;-84
2023/04/08 03:07:08;;;;;;;11.95;9.15;;;13.20;75.50;;;;;;6400512;22;20412;-84
2023/04/08 03:09:34;;;;;;;10.85;9.20;;;13.10;75.50;;;;;;6401719;22;20002;-83
2023/04/08 03:12:00;;;;;;;12.00;8.82;;;;;;;;;;6401018;22;20033;-84
2023/04/08 03:14:26;;;;;;;14.05;9.10;;;13.10;75.30;;;;;;6400597;22;20063;-83
2023/04/08 03:16:51;;;;;;;10.98;8.75;;;13.10;75.80;;;;;;6373514;22;20349;-84
2023/04/08 03:19:17;;;;;;;9.68;8.63;;;13.00;75.70;;;;;;6400279;22;19998;-82
2023/04/08 03:21:43;;;;;;;12.25;9.70;;;13.10;75.80;;;;;;6400435;22;19998;-83
2023/04/08 03:24:08;;;;;;;12.32;9.70;;;13.10;75.70;;;;;;6400139;22;20085;-83
2023/04/08 03:26:34;;;;;;;9.85;8.35;;;13.00;75.60;;;;;;6401561;22;20002;-83
2023/04/08 03:29:00;;;;;;;12.27;8.82;;;13.00;75.30;;;;;;6401284;22;20297;-83
2023/04/08 03:31:26;;;;;;;10.48;8.98;;;13.00;75.60;;;;;;6400304;22;20025;-84
2023/04/08 03:33:51;;;;;;;14.40;9.48;;;13.00;75.70;;;;;;6400863;22;20002;-83
2023/04/08 03:36:17;;;;;;;13.10;9.57;;;13.00;75.80;;;;;;6401415;22;20008;-83
2023/04/08 03:38:43;;;;;;;12.70;9.80;;;12.90;75.90;;;;;;6401029;22;20006;-83
2023/04/08 03:41:09;;;;;;;12.80;9.00;;;12.90;76.40;;;;;;6400661;22;20005;-83
2023/04/08 03:43:35;;;;;;;12.75;9.30;;;12.90;75.90;;;;;;6372828;22;20135;-83
2023/04/08 03:46:01;;;;;;;12.70;10.13;;;12.90;76.00;;;;;;6400453;22;20442;-84
2023/04/08 03:48:27;;;;;;;11.95;9.88;;;12.90;75.40;;;;;;6401003;22;20081;-84
2023/04/08 03:50:52;;;;;;;11.20;9.93;;;12.90;75.20;;;;;;6401544;22;20301;-84
2023/04/08 03:53:18;;;;;;;12.73;10.23;;;12.90;75.60;;;;;;6400327;22;19994;-84
2023/04/08 03:55:44;;;;;;;12.23;9.70;;;12.90;75.30;;;;;;6400731;22;20017;-84
2023/04/08 03:58:10;;;;;;;11.40;9.65;;;12.90;75.70;;;;;;6400933;22;20033;-84
2023/04/08 04:00:36;;;;;;;10.98;9.57;;;12.90;75.70;;;;;;6401201;22;20411;-84
2023/04/08 04:03:01;;;;;;;12.00;9.60;;;12.80;75.60;;;;;;6400317;22;19994;-85
2023/04/08 04:05:28;;;;;;;12.30;9.73;;;12.90;75.60;;;;;;6400986;22;19998;-85
2023/04/08 04:07:54;;;;;;;12.45;9.98;;;12.90;75.60;;;;;;6401231;22;20002;-85
2023/04/08 04:10:20;;;;;;;14.35;11.10;;;12.90;75.60;;;;;;6400879;22;20001;-85
2023/04/08 04:12:46;;;;;;;15.95;10.68;;;12.80;75.50;;;;;;6400455;22;20010;-85
2023/04/08 04:15:12;;;;;;;15.32;10.98;;;12.80;75.60;;;;;;6401475;22;20002;-85
2023/04/08 04:17:37;;;;;;;14.60;10.85;;;12.80;75.60;;;;;;6403110;22;20013;-85
2023/04/08 04:20:06;;;;;;;13.30;11.13;;;12.80;75.70;;;;;;6403299;22;20002;-84
2023/04/08 04:22:32;;;;;;;15.35;12.20;;;12.80;75.80;;;;;;6374769;22;20361;-84
2023/04/08 04:24:57;;;;;;;14.52;12.10;;;12.80;75.70;;;;;;6374426;22;20009;-84
2023/04/08 04:27:23;;;;;;;14.82;12.13;;;12.80;75.70;;;;;;6402617;22;20002;-84
2023/04/08 04:29:49;;;;;;;15.43;11.77;;;12.80;75.70;;;;;;6374906;22;20086;-84
2023/04/08 04:32:14;;;;;;;14.48;11.82;;;12.80;75.70;;;;;;6402193;22;20028;-84
2023/04/08 04:34:40;;;;;;;13.65;11.23;;;12.70;75.60;;;;;;6401836;22;20392;-85
2023/04/08 04:37:06;;;;;;;15.80;12.55;;;12.70;75.20;;;;;;6402714;22;20037;-85
2023/04/08 04:39:32;;;;;;;19.27;15.38;;;12.70;75.00;;;;;;6403137;22;20006;-84
2023/04/08 04:41:57;;;;;;;15.95;11.82;;;12.60;75.70;;;;;;6402756;22;20400;-85
2023/04/08 04:44:23;;;;;;;16.20;13.15;;;12.50;75.60;;;;;;6402325;22;20013;-85
2023/04/08 04:46:49;;;;;;;15.15;13.07;;;12.40;75.80;;;;;;6403061;22;20479;-85
2023/04/08 04:49:14;;;;;;;17.13;13.98;;;12.40;75.80;;;;;;6402463;22;20320;-82
2023/04/08 04:51:40;;;;;;;16.10;12.68;;;12.40;75.80;;;;;;6402256;22;20004;-83
2023/04/08 04:54:06;;;;;;;15.40;12.85;;;12.30;75.60;;;;;;6402229;22;20077;-83
2023/04/08 04:56:31;;;;;;;16.40;13.00;;;12.30;75.50;;;;;;6402168;22;20475;-83
2023/04/08 04:58:57;;;;;;;15.77;13.30;;;12.30;75.60;;;;;;6402977;22;20049;-83
2023/04/08 05:01:23;;;;;;;16.15;12.52;;;12.30;75.50;;;;;;6373490;22;20343;-83
2023/04/08 05:03:48;;;;;;;18.33;14.30;;;12.30;75.40;;;;;;6400977;22;20024;-84
2023/04/08 05:06:14;;;;;;;17.33;13.48;;;12.40;75.60;;;;;;6402538;22;20495;-83
2023/04/08 05:08:40;;;;;;;17.63;14.50;;;12.50;75.30;;;;;;6401137;22;20097;-82
2023/04/08 05:11:09;;;;;;;19.75;13.75;;;12.50;75.10;;;;;;6402390;22;20028;-83
2023/04/08 05:13:35;;;;;;;18.55;14.18;;;12.50;75.50;;;;;;6402021;22;20309;-82
2023/04/08 05:16:00;;;;;;;17.38;13.95;;;12.50;74.80;;;;;;6402362;22;20046;-83
2023/04/08 05:18:26;;;;;;;23.15;16.08;;;12.60;74.60;;;;;;6402166;22;20002;-83
2023/04/08 05:20:52;;;;;;;19.08;14.20;;;12.60;74.60;;;;;;6401581;22;20020;-85
2023/04/08 05:23:18;;;;;;;16.88;13.90;;;12.60;74.90;;;;;;6401451;22;19998;-86
2023/04/08 05:25:43;;;;;;;18.63;13.40;;;12.60;74.50;;;;;;6401879;22;19998;-86
2023/04/08 05:28:09;;;;;;;16.27;13.23;;;12.70;74.80;;;;;;6402102;22;20055;-86
2023/04/08 05:30:35;;;;;;;19.60;14.65;;;12.70;74.10;;;;;;6402681;22;20021;-86
2023/04/08 05:33:01;;;;;;;18.42;14.00;;;;;;;;;;6402411;22;20015;-86
2023/04/08 05:35:27;;;;;;;17.77;14.00;;;12.80;74.00;;;;;;6401997;22;19998;-86
2023/04/08 05:37:53;;;;;;;21.88;18.38;;;12.80;74.50;;;;;;6402437;22;20002;-85
2023/04/08 05:40:19;;;;;;;18.83;14.35;;;;;;;;;;6402247;22;20051;-86
2023/04/08 05:42:45;;;;;;;17.42;14.00;;;12.60;74.00;;;;;;6401957;22;20404;-85
2023/04/08 05:45:11;;;;;;;17.63;14.40;;;;;;;;;;6401571;22;20063;-86
2023/04/08 05:47:37;;;;;;;17.25;14.80;;;12.60;74.30;;;;;;6400796;22;20048;-89
2023/04/08 05:50:02;;;;;;;17.48;14.48;;;12.70;74.90;;;;;;6399731;22;20024;-84
2023/04/08 05:52:28;;;;;;;18.83;15.13;;;12.70;74.80;;;;;;6399978;22;20001;-84
2023/04/08 05:54:54;;;;;;;21.08;16.25;;;12.70;74.50;;;;;;6401252;22;20026;-84
2023/04/08 05:57:19;;;;;;;20.67;15.55;;;12.70;74.40;;;;;;6400644;22;20005;-84
2023/04/08 05:59:45;;;;;;;20.00;14.27;;;12.70;74.10;;;;;;6402256;22;20024;-84
2023/04/08 06:02:11;;;;;;;19.02;14.60;;;12.60;74.00;;;;;;6370232;22;20002;-84
2023/04/08 06:04:37;;;;;;;18.67;14.27;;;;;;;;;;6398943;22;20047;-86
2023/04/08 06:07:04;;;;;;;17.75;14.35;;;12.60;74.30;;;;;;6370989;22;20045;-83
2023/04/08 06:09:30;;;;;;;22.42;17.30;;;;;;;;;;6400026;22;20101;-88
2023/04/08 06:11:56;;;;;;;21.77;15.35;;;12.50;74.50;;;;;;6400600;22;20046;-87
2023/04/08 06:14:22;;;;;;;18.88;14.80;;;12.40;74.80;;;;;;6399728;22;20018;-86
2023/04/08 06:16:47;;;;;;;23.17;17.42;;;12.40;74.70;;;;;;6401533;22;20430;-86
2023/04/08 06:19:13;;;;;;;21.40;16.02;;;12.50;75.40;;;;;;6400928;22;20002;-86
2023/04/08 06:21:39;;;;;;;21.25;16.38;;;12.50;75.60;;;;;;6401200;22;20008;-87
2023/04/08 06:24:05;;;;;;;22.55;15.85;;;12.50;75.70;;;;;;6401237;22;20077;-87
2023/04/08 06:26:30;;;;;;;24.77;17.90;;;12.40;76.10;;;;;;6401675;22;19998;-82
2023/04/08 06:28:56;;;;;;;18.48;13.60;;;12.30;76.60;;;;;;6399711;22;20058;-79
2023/04/08 06:31:22;;;;;;;18.33;13.35;;;12.40;76.50;;;;;;6400861;22;20069;-82
2023/04/08 06:33:47;;;;;;;15.85;12.80;;;12.40;76.40;;;;;;6400831;22;20070;-81
2023/04/08 06:36:13;;;;;;;19.17;13.35;;;12.60;76.20;;;;;;6398735;22;20404;-80
2023/04/08 06:38:39;;;;;;;18.70;13.55;;;12.90;75.70;;;;;;6373701;22;20029;-90
2023/04/08 06:41:06;;;;;;;19.17;15.20;;;12.90;76.10;;;;;;6403004;22;20001;-90
2023/04/08 06:43:32;;;;;;;19.60;13.98;;;13.00;75.70;;;;;;6401841;22;20084;-90
2023/04/08 06:45:58;;;;;;;18.40;13.98;;;13.10;75.40;;;;;;6402120;22;19998;-90
2023/04/08 06:48:29;;;;;;;19.58;13.93;;;13.20;74.50;;;;;;6403194;22;20005;-91
2023/04/08 06:50:59;;;;;;;17.17;12.68;;;13.20;74.40;;;;;;6402665;22;20075;-90
2023/04/08 06:53:25;;;;;;;;;;;13.20;74.80;;;;;;6374217;22;19998;-89
2023/04/08 06:55:51;;;;;;;17.90;12.88;;;13.20;74.80;;;;;;6402263;22;19904;-90
2023/04/08 06:58:17;;;;;;;19.58;13.73;;;13.40;74.30;;;;;;6402272;22;20065;-89
2023/04/08 07:00:43;;;;;;;19.02;15.32;;;13.40;74.00;;;;;;6402211;22;20001;-89
2023/04/08 07:03:10;;;;;;;15.70;12.57;;;13.50;73.80;;;;;;6401826;22;19998;-90
2023/04/08 07:05:36;;;;;;;18.48;12.68;;;13.60;73.70;;;;;;6373534;22;20432;-81
2023/04/08 07:08:02;;;;;;;15.25;12.60;;;13.70;74.10;;;;;;6374058;22;20037;-90
2023/04/08 07:10:28;;;;;;;19.05;12.88;;;13.70;73.40;;;;;;6402756;22;19998;-90
2023/04/08 07:12:54;;;;;;;17.75;12.75;;;13.90;73.40;;;;;;6402451;22;20060;-90
2023/04/08 07:15:19;;;;;;;16.50;12.75;;;13.90;73.20;;;;;;6401955;22;20305;-89
2023/04/08 07:17:46;;;;;;;18.10;12.55;;;14.00;73.00;;;;;;6374011;22;20028;-90
2023/04/08 07:20:12;;;;;;;15.98;12.50;;;14.10;73.00;;;;;;6402217;22;20005;-89
2023/04/08 07:22:39;;;;;;;16.33;12.50;;;14.20;72.70;;;;;;6374071;22;20013;-90
2023/04/08 07:25:05;;;;;;;16.42;12.85;;;14.30;72.60;;;;;;6401989;22;20040;-89
2023/04/08 07:27:35;;;;;;;20.58;14.88;;;14.40;72.10;;;;;;6401735;22;19997;-89
2023/04/08 07:30:01;;;;;;;19.05;15.20;;;14.30;71.30;;;;;;6402070;22;20076;-88
2023/04/08 07:32:27;;;;;;;14.48;11.82;;;14.20;71.50;;;;;;6401930;22;19994;-87
2023/04/08 07:34:53;;;;;;;14.85;12.32;;;14.30;71.40;;;;;;6401025;22;20465;-87
2023/04/08 07:37:19;;;;;;;12.57;10.63;;;14.40;71.20;;;;;;6400459;22;20005;-88
2023/04/08 07:39:44;;;;;;;13.77;10.80;;;14.50;70.40;;;;;;6401290;22;20083;-88
2023/04/08 07:42:10;;;;;;;15.68;11.00;;;14.60;69.70;;;;;;6402526;22;20009;-89
2023/04/08 07:44:37;;;;;;;14.82;10.25;;;14.70;69.30;;;;;;6374309;22;20012;-88
2023/04/08 07:47:03;;;;;;;15.18;10.02;;;14.80;69.00;;;;;;6402665;22;20006;-89
2023/04/08 07:49:28;;;;;;;15.90;10.60;;;14.80;69.40;;;;;;6402416;22;20070;-88
2023/04/08 07:51:54;;;;;;;12.40;9.48;;;15.00;67.10;;;;;;6402207;22;19998;-89
2023/04/08 07:54:23;;;;;;;14.30;9.85;;;15.00;67.60;;;;;;6402720;22;19998;-88
2023/04/08 07:56:49;;;;;;;13.13;9.55;;;15.10;65.20;;;;;;6374531;22;20002;-90
2023/04/08 07:59:14;;;;;;;11.88;9.20;;;15.20;66.50;;;;;;6402507;22;20002;-89
2023/04/08 08:01:40;;;;;;;13.60;10.40;;;15.30;65.70;;;;;;6373417;22;20101;-89
2023/04/08 08:04:05;;;;;;;13.45;9.40;;;15.30;62.90;;;;;;6374207;22;20002;-89
2023/04/08 08:06:31;;;;;;;13.00;9.38;;;15.40;64.20;;;;;;6402455;22;20430;-82
2023/04/08 08:08:58;;;;;;;12.88;8.18;;;15.40;62.70;;;;;;6402574;22;20001;-79
2023/04/08 08:11:23;;;;;;;13.50;9.35;;;15.50;61.40;;;;;;6401736;22;19994;-80
2023/04/08 08:13:49;;;;;;;10.43;7.60;;;15.50;61.40;;;;;;6401833;22;20014;-80
2023/04/08 08:16:15;;;;;;;9.95;8.02;;;15.50;62.10;;;;;;6402072;22;20652;-81
2023/04/08 08:18:41;;;;;;;12.80;8.43;;;15.50;61.10;;;;;;6402114;22;19998;-90
2023/04/08 08:21:07;;;;;;;10.55;7.68;;;15.70;61.30;;;;;;6402704;22;20006;-91
2023/04/08 08:23:33;;;;;;;9.55;6.85;;;15.80;60.50;;;;;;6402090;22;20005;-91
2023/04/08 08:26:03;;;;;;;9.07;5.97;;;16.00;60.80;;;;;;6402181;22;20002;-81
2023/04/08 08:28:29;;;;;;;9.88;6.85;;;16.20;59.50;;;;;;6373858;22;20030;-80
2023/04/08 08:30:54;;;;;;;10.27;6.88;;;16.30;59.90;;;;;;6401527;22;20001;-80
2023/04/08 08:33:20;;;;;;;10.75;6.07;;;16.40;59.20;;;;;;6402272;22;20423;-81
2023/04/08 08:35:46;;;;;;;8.15;5.20;;;16.60;57.50;;;;;;6402279;22;20472;-80
2023/04/08 08:38:12;;;;;;;7.60;4.60;;;16.60;57.00;;;;;;6402344;22;20037;-81
2023/04/08 08:40:38;;;;;;;9.68;5.78;;;16.80;57.70;;;;;;6401407;22;20047;-80
2023/04/08 08:43:04;;;;;;;6.35;4.43;;;16.80;56.00;;;;;;6401930;22;20002;-80
2023/04/08 08:45:32;;;;;;;8.05;4.53;;;16.90;57.00;;;;;;6401504;22;20080;-81
2023/04/08 08:47:57;;;;;;;8.82;4.40;;;17.00;57.00;;;;;;6401953;22;20142;-81
2023/04/08 08:50:23;;;;;;;6.00;4.25;;;17.00;56.30;;;;;;6401814;22;20040;-81
2023/04/08 08:52:50;;;;;;;10.73;5.35;;;17.00;56.80;;;;;;6401778;22;20001;-81
2023/04/08 08:55:19;;;;;;;9.18;5.13;;;;;;;;;;6401933;22;20050;-81
2023/04/08 08:57:45;;;;;;;9.25;6.05;;;17.00;56.20;;;;;;6373414;22;20377;-80
2023/04/08 09:00:14;;;;;;;7.95;5.50;;;17.10;56.10;;;;;;6401894;22;19994;-80
2023/04/08 09:02:40;;;;;;;8.23;5.37;;;17.10;56.20;;;;;;6403473;22;20073;-80
2023/04/08 09:05:06;;;;;;;15.98;4.90;;;17.20;56.50;;;;;;6399248;22;20413;-80
2023/04/08 09:07:36;;;;;;;6.65;4.00;;;17.40;56.80;;;;;;6396998;22;20017;-79
2023/04/08 09:10:03;;;;;;;8.85;3.60;;;17.50;57.40;;;;;;6400033;22;20416;-81
2023/04/08 09:12:30;;;;;;;7.82;4.13;;;17.60;57.10;;;;;;6398738;22;20101;-82
2023/04/08 09:15:07;;;;;;;4.80;2.92;;;17.80;56.90;;;;;;6402825;22;19997;-82
2023/04/08 09:17:42;;;;;;;5.20;3.45;;;18.00;56.90;;;;;;6402207;22;20440;-81
2023/04/08 09:20:13;;;;;;;2.63;1.77;;;18.10;56.80;;;;;;6401292;22;20009;-82
2023/04/08 09:23:01;;;;;;;6.28;1.70;;;18.30;57.40;;;;;;6371009;22;20005;-84
2023/04/08 09:25:31;;;;;;;4.88;1.95;;;18.50;58.80;;;;;;6401944;22;20076;-85
2023/04/08 09:27:57;;;;;;;2.85;1.88;;;18.50;60.10;;;;;;6400802;22;19998;-82
2023/04/08 09:30:25;;;;;;;3.63;2.28;;;18.70;61.30;;;;;;6401654;22;20491;-82
2023/04/08 09:32:51;;;;;;;7.80;2.20;;;18.80;60.30;;;;;;6401017;22;20089;-82
2023/04/08 09:35:18;;;;;;;5.22;2.20;;;18.90;61.20;;;;;;6400964;22;20423;-81
2023/04/08 09:37:44;;;;;;;2.95;1.70;;;19.10;61.90;;;;;;6399639;22;20002;-85
2023/04/08 09:40:10;;;;;;;6.57;1.88;;;19.20;61.60;;;;;;6397583;22;20025;-79
2023/04/08 09:42:40;;;;;;;5.95;2.63;;;19.30;59.10;;;;;;6401390;22;20054;-79
2023/04/08 09:45:07;;;;;;;4.57;2.88;;;19.30;58.90;;;;;;6400667;22;20009;-83
2023/04/08 09:47:54;;;;;;;4.28;2.80;;;19.40;58.70;;;;;;6400577;22;20047;-84
2023/04/08 09:50:27;;;;;;;7.78;3.78;;;19.40;58.30;;;;;;6401559;22;20021;-84
2023/04/08 09:52:59;;;;;;;4.43;3.35;;;19.60;58.20;;;;;;6402292;22;20492;-85
2023/04/08 09:55:27;;;;;;;10.32;3.20;;;19.70;57.30;;;;;;6403215;22;20001;-85
2023/04/08 09:58:06;;;;;;;5.90;3.30;;;19.70;57.80;;;;;;6401132;22;20025;-82
2023/04/08 10:00:39;;;;;;;7.93;3.30;;;19.80;58.90;;;;;;6399759;22;20092;-82
2023/04/08 10:03:27;;;;;;;5.75;4.50;;;19.90;57.80;;;;;;6400789;22;20073;-82
2023/04/08 10:05:55;;;;;;;8.35;3.92;;;19.90;55.80;;;;;;6400782;22;20021;-82
2023/04/08 10:08:23;;;;;;;5.47;4.07;;;20.00;56.60;;;;;;6400805;22;20054;-82
2023/04/08 10:10:50;;;;;;;4.70;3.83;;;20.00;56.30;;;;;;6399971;22;20050;-82
2023/04/08 10:13:16;;;;;;;10.13;4.00;;;20.00;56.60;;;;;;6400834;22;20131;-82
2023/04/08 10:15:42;;;;;;;6.10;3.92;;;20.00;56.20;;;;;;6373164;22;20503;-81
2023/04/08 10:18:11;;;;;;;7.07;4.28;;;20.10;57.00;;;;;;6370970;22;20013;-81
2023/04/08 10:20:36;;;;;;;6.53;4.05;;;20.20;55.10;;;;;;6401773;22;20081;-81
2023/04/08 10:23:07;;;;;;;6.95;3.35;;;20.30;56.50;;;;;;6401360;22;20040;-82
2023/04/08 10:25:40;;;;;;;4.40;2.97;;;20.40;56.60;;;;;;6401704;22;19997;-79
2023/04/08 10:28:16;;;;;;;4.78;2.50;;;20.60;56.80;;;;;;6372073;22;20016;-78
2023/04/08 10:30:54;;;;;;;3.58;1.70;;;20.70;56.40;;;;;;6403929;22;20323;-85
2023/04/08 10:33:31;;;;;;;3.58;1.90;;;20.80;56.80;;;;;;6402182;22;20020;-89
2023/04/08 10:36:10;;;;;;;5.25;1.90;;;20.90;56.30;;;;;;6402208;22;20074;-79
2023/04/08 10:38:36;;;;;;;2.42;1.70;;;20.90;52.80;;;;;;6399044;22;20002;-81
2023/04/08 10:41:03;;;;;;;2.97;1.67;;;21.10;55.10;;;;;;6402718;22;20006;-78
2023/04/08 10:43:32;;;;;;;8.38;1.40;;;21.20;55.80;;;;;;6405890;22;19993;-79
2023/04/08 10:45:58;;;;;;;13.45;2.15;;;21.40;55.40;;;;;;6404207;22;20008;-79
2023/04/08 10:48:24;;;;;;;3.58;1.45;;;21.40;55.90;;;;;;6407094;22;20002;-79
2023/04/08 10:50:55;;;;;;;2.45;1.45;;;21.60;55.80;;;;;;6404206;22;19994;-79
2023/04/08 10:53:39;;;;;;;3.97;1.90;;;21.60;55.00;;;;;;6399397;22;20001;-82
2023/04/08 10:56:11;;;;;;;2.25;1.35;;;21.60;55.30;;;;;;6400345;22;19994;-82
2023/04/08 10:58:55;;;;;;;3.67;1.55;;;21.60;55.50;;;;;;6372879;22;20297;-82
2023/04/08 11:01:22;;;;;;;2.65;1.77;;;21.70;56.30;;;;;;6399203;22;20332;-82
2023/04/08 11:03:48;;;;;;;6.47;1.85;;;21.70;55.20;;;;;;6400054;22;19998;-82
2023/04/08 11:06:14;;;;;;;2.53;1.48;;;21.70;54.70;;;;;;6400051;22;19997;-82
2023/04/08 11:08:40;;;;;;;2.95;1.70;;;21.70;53.90;;;;;;6400646;22;20099;-82
2023/04/08 11:13:45;;;;;;;3.92;1.98;;;21.60;54.00;;;;;;6391388;22;20105;-79
2023/04/08 11:16:14;;;;;;;4.13;1.52;;;21.50;54.60;;;;;;6396797;22;20006;-81
2023/04/08 11:18:40;;;;;;;3.92;1.80;;;21.60;55.30;;;;;;6400308;22;20316;-81
2023/04/08 11:21:10;;;;;;;2.60;1.20;;;21.60;55.80;;;;;;6401734;22;20028;-80
2023/04/08 11:23:36;;;;;;;5.93;1.50;;;21.80;55.30;;;;;;6403327;22;20051;-81
2023/04/08 11:26:02;;;;;;;2.45;1.30;;;21.80;55.80;;;;;;6401731;22;20006;-80
2023/04/08 11:28:29;;;;;;;1.75;1.33;;;21.90;56.20;;;;;;6401215;22;19994;-80
2023/04/08 11:30:55;;;;;;;8.10;1.75;;;;;;;;;;6399869;22;20006;-80
2023/04/08 11:33:23;;;;;;;3.42;1.40;;;22.50;55.50;;;;;;6401458;22;20049;-81
2023/04/08 11:35:50;;;;;;;4.05;1.73;;;22.70;55.60;;;;;;6372925;22;20431;-80
2023/04/08 11:38:21;;;;;;;4.10;2.17;;;23.50;54.00;;;;;;6373802;22;20005;-80
2023/04/08 11:41:00;;;;;;;3.08;1.63;;;24.50;52.50;;;;;;6373335;22;20005;-84
2023/04/08 11:43:26;;;;;;;4.25;1.75;;;25.50;50.30;;;;;;6401399;22;20009;-84
2023/04/08 11:45:52;;;;;;;4.85;1.60;;;27.10;47.80;;;;;;6401253;22;20002;-86
2023/04/08 11:48:17;;;;;;;6.32;1.95;;;27.40;46.90;;;;;;6397619;22;20305;-84
2023/04/08 11:50:44;;;;;;;5.40;1.60;;;28.20;44.90;;;;;;6398459;22;20155;-84
2023/04/08 11:53:20;;;;;;;5.53;2.00;;;28.80;44.50;;;;;;6398848;22;20090;-81
2023/04/08 11:55:47;;;;;;;11.18;1.80;;;29.10;44.40;;;;;;6400750;22;20001;-81
2023/04/08 11:58:13;;;;;;;4.05;1.88;;;29.00;43.90;;;;;;6401186;22;20021;-84
2023/04/08 12:00:39;;;;;;;2.38;1.45;;;28.70;43.90;;;;;;6402899;22;20040;-84
2023/04/08 12:03:06;;;;;;;6.38;2.00;;;28.60;43.90;;;;;;6403685;22;20069;-83
2023/04/08 12:05:32;;;;;;;5.10;1.63;;;28.50;43.10;;;;;;6403181;22;19998;-82
2023/04/08 12:08:00;;;;;;;3.65;1.88;;;28.30;43.40;;;;;;6399915;22;20080;-84
2023/04/08 12:10:25;;;;;;;6.18;1.88;;;27.80;43.20;;;;;;6399287;22;19994;-84
2023/04/08 12:12:51;;;;;;;4.00;1.92;;;27.50;44.10;;;;;;6399243;22;20008;-85
2023/04/08 12:15:17;;;;;;;4.43;1.60;;;27.20;44.10;;;;;;6399474;22;20404;-84
2023/04/08 12:17:43;;;;;;;2.65;1.40;;;27.00;44.50;;;;;;6399944;22;20040;-84
2023/04/08 12:20:10;;;;;;;4.93;1.92;;;27.20;44.10;;;;;;6399387;22;20058;-81
2023/04/08 12:22:36;;;;;;;6.13;1.98;;;27.30;44.30;;;;;;6399852;22;19998;-83
2023/04/08 12:25:02;;;;;;;4.20;1.65;;;27.50;44.50;;;;;;6401019;22;20054;-80
2023/04/08 12:27:29;;;;;;;5.85;1.70;;;27.80;44.00;;;;;;6399685;22;20099;-81
2023/04/08 12:29:55;;;;;;;3.30;1.90;;;28.10;43.00;;;;;;6399734;22;20004;-83
2023/04/08 12:32:21;;;;;;;6.00;1.50;;;28.40;43.00;;;;;;6399442;22;20002;-80
2023/04/08 12:34:46;;;;;;;4.45;2.10;;;28.40;41.90;;;;;;6371605;22;20002;-79
2023/04/08 12:37:12;;;;;;;2.92;1.60;;;28.60;42.00;;;;;;6402064;22;19998;-83
2023/04/08 12:39:38;;;;;;;3.60;1.80;;;28.80;42.20;;;;;;6402745;22;20407;-82
2023/04/08 12:42:03;;;;;;;4.60;1.90;;;29.10;41.30;;;;;;6400987;22;19998;-81
2023/04/08 12:44:29;;;;;;;4.30;1.63;;;29.40;40.40;;;;;;6401390;22;19997;-80